Station: Minnipa Rs

  Atmospheric Gas Attenuation - ITU Rec 676-11   --------------- db/100km ---------------
Date Time Temp RH % AH g/m3 Dew Point Wind Direction Speed kph Gust kph Barometer mB Rainfall Since 9am 24GHz 47GHz 76GHz 122GHz 134GHz 241GHz
24 19:10 32.9 17 6.02 4.6 17 22 1003.3 0 13.4 17.6 23.6 61.4 51.8 177.1
24 19:00 32.8 17 5.99 4.6 19 26 1003.1 0 13.4 17.6 23.5 61.3 51.6 176.3
24 18:50 32.3 19 6.52 5.7 15 17 1003.4 0 14.5 18.3 25.1 65.7 56.9 195.0
24 18:40 32.6 19 6.62 6 20 22 1003.6 0 14.7 18.4 25.4 66.2 57.6 197.7
24 18:30 32.9 16 5.67 3.8 19 24 1003.5 0 12.7 17.2 22.6 58.8 48.6 165.8
24 18:20 32.6 18 6.28 5.2 20 24 1003.9 0 14.0 18.0 24.4 63.7 54.4 186.4
24 18:10 32.4 18 6.21 5 28 32 1004.1 0 13.8 18.0 24.3 63.3 53.9 184.6
24 18:00 32.5 18 6.24 5.1 30 41 1004.2 0 13.9 18.0 24.3 63.4 54.1 185.4
24 17:50 30.9 25 7.96 8.6 33 41 1004 0 17.5 20.4 29.9 78.4 72.2 248.7
24 17:40 30.4 25 7.75 8.2 54 67 1004.3 0 17.1 20.2 29.5 77.2 70.5 242.7
24 17:30 33.3 17 6.15 5 43 56 1004 0 13.7 17.7 23.8 62.2 52.8 180.7
24 17:20 34 15 5.63 3.7 44 50 1004.1 0 12.6 17.0 22.2 57.8 47.6 162.5
24 17:10 34.6 15 5.81 4.2 43 52 1003.9 0 13.0 17.1 22.5 58.7 48.9 167.1
24 17:00 35.7 13 5.33 3 32 43 1003.6 0 12.0 16.4 21.0 54.5 44.0 150.0
24 16:50 35.7 13 5.33 3 32 35 1003.7 0 12.0 16.4 21.0 54.5 44.0 150.0
24 16:40 35.8 12 4.95 2 41 50 1003.7 0 11.2 16.0 19.9 51.8 40.7 138.2
24 16:30 36.1 12 5.03 2.2 41 54 1003.5 0 11.3 16.0 20.1 52.2 41.2 140.1
24 16:20 35.4 13 5.25 2.8 43 46 1003.8 0 11.8 16.3 20.8 54.2 43.5 148.1
24 16:10 34.9 16 6.3 5.4 24 28 1004 0 13.9 17.6 23.8 62.1 53.2 182.2
24 16:00 34.4 16 6.13 5 33 52 1004.3 0 13.6 17.5 23.5 61.3 51.9 177.8
24 15:50 35.2 15 6 4.7 37 43 1004.5 0 13.3 17.2 22.9 59.7 50.3 172.0
24 15:40 36.1 15 6.28 5.4 41 46 1004.3 0 13.9 17.4 23.4 61.2 52.3 179.1
24 15:30 37.4 14 6.27 5.4 37 50 1004.2 0 13.8 17.1 23.1 60.2 51.4 176.1
24 15:20 37.3 13 5.79 4.3 41 46 1004.3 0 12.8 16.6 21.8 56.8 47.2 161.4
24 15:10 37.4 13 5.82 4.4 39 61 1004.3 0 12.9 16.6 21.9 57.0 47.4 162.1
24 15:00 37.8 13 5.94 4.7 35 48 1004.2 0 13.1 16.7 22.1 57.5 48.2 165.1
24 14:50 37.4 13 5.82 4.4 33 43 1004.4 0 12.9 16.6 21.9 57.0 47.4 162.2
24 14:40 37.1 13 5.73 4.1 32 43 1004.4 0 12.7 16.6 21.7 56.5 46.8 159.9
24 14:30 36.2 14 5.89 4.5 26 35 1004.4 0 13.1 16.9 22.4 58.3 48.7 166.6
24 14:20 36.5 13 5.56 3.7 30 35 1004.6 0 12.4 16.5 21.4 55.7 45.6 155.8
24 14:10 35.9 13 5.39 3.2 17 20 1004.6 0 12.1 16.4 21.1 54.9 44.5 151.6
24 14:00 37.4 13 5.82 4.4 19 33 1004.3 0 12.9 16.6 21.9 57.0 47.4 162.1
24 13:50 35.8 14 5.77 4.2 22 28 1004.7 0 12.8 16.9 22.1 57.7 47.9 163.6
24 13:40 35.4 14 5.65 3.8 22 30 1004.9 0 12.6 16.8 21.9 57.1 47.0 160.6
24 13:30 34.9 15 5.9 4.4 15 20 1004.6 0 13.1 17.2 22.7 59.2 49.6 169.4
24 13:20 34.6 15 5.81 4.2 19 20 1004.8 0 13.0 17.1 22.6 58.8 48.9 167.2
24 13:10 34 16 6.01 4.6 15 17 1004.9 0 13.4 17.5 23.3 60.7 51.1 174.8
24 13:00 34.3 17 6.48 5.8 17 24 1005.1 0 14.3 17.9 24.5 64.0 55.3 189.5
24 12:50 34.3 18 6.86 6.6 15 17 1005.4 0 15.1 18.4 25.6 66.9 58.8 202.0
24 12:40 34.5 19 7.32 7.5 15 20 1005.5 0 16.0 18.9 26.9 70.3 63.1 216.9
24 12:30 34.4 19 7.28 7.5 22 32 1005.3 0 16.0 18.9 26.8 70.0 62.7 215.8
24 12:20 33.8 20 7.43 7.7 20 30 1005.6 0 16.3 19.2 27.4 71.7 64.7 222.5
24 12:10 33.5 21 7.68 8.2 20 22 1005.5 0 16.8 19.5 28.2 74.0 67.3 231.8
24 12:00 32.1 23 7.81 8.4 13 22 1005.3 0 17.1 20.0 29.1 76.2 69.7 240.2
24 11:50 31.7 23 7.64 8 11 13 1005.3 0 16.8 19.8 28.7 75.2 68.4 235.3
24 11:40 31.8 25 8.35 9.3 17 19 1005.7 0 18.3 20.7 30.9 81.0 75.5 260.4
24 11:30 31 27 8.64 9.8 15 22 1005.6 0 18.9 21.3 32.1 84.2 79.2 273.4
24 11:20 31 29 9.28 10.9 15 17 1005.2 0 20.2 22.1 34.1 89.6 86.0 297.1
24 11:10 29.6 32 9.5 11.2 9 11 1005.2 0 20.7 22.7 35.4 93.1 89.9 310.6
24 11:00 29.1 31 8.95 10.3 13 17 1004.8 0 19.6 22.1 33.8 88.8 84.4 291.3
24 10:50 28.6 34 9.56 11.2 13 15 1004.9 0 20.9 23.0 36.0 94.8 91.6 316.6
24 10:40 27.9 34 9.2 10.6 15 17 1005.1 0 20.2 22.7 35.1 92.3 88.4 305.3
24 10:30 27.6 37 9.84 11.6 9 15 1005 0 21.5 23.7 37.5 98.5 95.9 331.6
24 10:20 27.3 35 9.16 10.5 11 13 1005.3 0 20.1 22.8 35.3 92.7 88.6 306.0
24 10:10 27.1 37 9.58 11.2 13 15 1005.3 0 21.0 23.5 36.8 96.7 93.6 323.4
24 10:00 26.8 37 9.42 10.9 13 19 1005.2 0 20.7 23.3 36.4 95.6 92.1 318.2
24 09:50 26.4 39 9.71 11.3 11 17 1005.3 0 21.3 23.8 37.6 98.8 95.9 331.4
24 09:40 25.7 41 9.82 11.5 13 13 1005.4 0 21.6 24.2 38.3 100.7 98.0 338.8
24 09:30 25.3 42 9.83 11.5 17 24 1005.3 0 21.6 24.3 38.5 101.3 98.6 340.9
24 09:20 25.1 42 9.72 11.6 20 24 1005.7 0 21.4 24.2 38.2 100.5 97.6 337.3
24 09:10 25.1 42 9.72 11.3 20 22 1005.4 0 21.4 24.2 38.2 100.5 97.6 337.2
24 09:00 25 42 9.67 11.2 19 22 1005.1 0 21.3 24.1 38.1 100.1 97.1 335.5
24 08:50 24.7 42 9.51 10.9 19 20 1005.2 0 21.0 24.0 37.6 98.9 95.6 330.2
24 08:40 24.7 42 9.51 10.9 19 22 1005.2 0 21.0 24.0 37.6 98.9 95.6 330.2
24 08:30 24.6 42 9.45 10.8 20 24 1005.1 0 20.9 23.9 37.5 98.5 95.0 328.1
24 08:20 24.7 42 9.51 10.9 20 24 1005.2 0 21.0 24.0 37.6 98.9 95.6 330.2
24 08:10 24.9 42 9.61 11.1 19 22 1005.3 0 21.2 24.1 37.9 99.7 96.6 333.5
24 08:00 24.6 43 9.68 11.2 19 26 1005 0 21.4 24.2 38.3 100.7 97.7 337.5
24 07:50 24.7 42 9.51 10.9 19 20 1005.1 0 21.0 24.0 37.6 98.9 95.6 330.2
24 07:40 25 40 9.21 10.5 13 15 1004.9 0 20.4 23.5 36.4 95.7 91.8 316.7
24 07:30 25.2 38 8.85 9.9 15 19 1004.8 0 19.6 22.9 35.1 92.1 87.4 301.5
24 07:20 25.3 37 8.66 9.6 15 17 1004.9 0 19.2 22.6 34.4 90.3 85.2 293.6
24 07:10 25.7 34 8.14 8.7 15 15 1004.8 0 18.1 21.8 32.5 85.2 79.0 271.9
24 07:00 26.2 30 7.39 7.3 19 24 1004.5 0 16.5 20.7 29.8 78.1 70.4 241.8
24 06:50 27.7 25 6.69 5.9 20 22 1004.5 0 15.0 19.5 27.1 70.8 61.9 212.1
24 06:40 27.7 21 5.62 3.4 9 11 1003.9 0 12.8 18.1 23.9 62.1 51.2 174.5
24 06:30 27.7 22 5.89 4.1 9 11 1003.5 0 13.3 18.4 24.6 64.3 53.8 183.8
24 06:20 27.9 22 5.95 4.2 9 9 1003.6 0 13.5 18.5 24.8 64.6 54.3 185.4
24 06:10 27.9 22 5.95 4.2 13 13 1003.7 0 13.5 18.5 24.8 64.6 54.3 185.5
24 06:00 28.2 20 5.5 3.1 9 13 1003.4 0 12.5 17.9 23.4 60.8 49.7 169.3
24 05:50 29 18 5.17 2.3 9 11 1003.5 0 11.8 17.3 22.2 57.7 46.1 156.7
24 05:40 29.5 14 4.13 -0.8 9 11 1003.3 0 9.7 16.1 19.2 49.6 36.3 122.1
24 05:30 30.2 12 3.68 -2.3 15 19 1003.2 0 8.7 15.5 17.8 46.0 32.0 107.0
24 05:20 31.4 11 3.6 -2.6 19 19 1003.2 0 8.5 15.2 17.4 44.8 30.8 103.1
24 04:50 31.9 10 3.36 -3.5 19 20 1002.9 0 8.0 14.9 16.6 42.9 28.6 95.3
24 04:40 32.3 10 3.43 -3.2 20 22 1002.7 0 8.2 14.9 16.7 43.1 29.1 97.0
24 04:30 31.2 11 3.56 -2.7 15 24 1002.8 0 8.5 15.2 17.3 44.6 30.6 102.1
24 04:20 31.4 10 3.27 -3.8 9 13 1003.1 0 7.9 14.8 16.5 42.5 28.0 93.2
24 04:10 31.8 10 3.34 -3.5 22 28 1002.6 0 8.0 14.8 16.6 42.8 28.5 94.8
24 04:00 32.1 10 3.4 -3.3 22 32 1002.4 0 8.1 14.9 16.7 43.0 28.9 96.2
24 03:50 32 10 3.38 -3.4 20 24 1002.6 0 8.1 14.8 16.7 42.9 28.7 95.8
24 03:40 32.1 10 3.4 -3.3 22 26 1002.7 0 8.1 14.9 16.7 43.0 28.9 96.3
24 03:30 32.2 10 3.41 -3.2 24 37 1002.7 0 8.1 14.9 16.7 43.1 28.9 96.5
24 03:20 32.3 10 3.43 -3.2 26 30 1002.8 0 8.2 14.9 16.7 43.1 29.1 97.0
24 03:10 32.3 10 3.43 -3.2 28 33 1002.8 0 8.2 14.9 16.7 43.1 29.1 97.0
24 03:00 32.5 10 3.47 -3 26 33 1002.8 0 8.3 14.9 16.8 43.3 29.3 97.9
24 02:50 32.5 10 3.47 -3 24 28 1003.1 0 8.3 14.9 16.8 43.3 29.4 98.0
24 02:40 32.8 10 3.52 -2.8 26 30 1003.2 0 8.3 14.9 16.9 43.5 29.7 99.1
24 02:30 33.2 9 3.24 -3.9 28 37 1003.2 0 7.8 14.5 16.1 41.4 27.2 90.4
24 02:20 33.4 9 3.27 -3.7 30 33 1003.3 0 7.8 14.5 16.1 41.6 27.4 91.1

Last Refresh: 24-Jan-2021 19:16:04

Most of the information presented on this site is sourced from the Bureau of Meteorology.  Copyright in all material sourced from the Bureau of Meteorology resides with the Commonwealth of Australia.